createdAt,value
2022-08-05T00:00:20.311Z,98290.94
2022-08-05T00:02:51.089Z,98257.56
2022-08-05T00:06:01.782Z,98250.50
2022-08-05T00:08:09.078Z,98251.38
2022-08-05T00:10:55.955Z,98247.38
2022-08-05T00:13:38.260Z,98244.72
2022-08-05T00:16:12.855Z,98269.56
2022-08-05T00:18:44.259Z,98297.25
2022-08-05T00:21:14.454Z,98283.66
2022-08-05T00:23:45.938Z,98268.06
2022-08-05T00:26:16.461Z,98268.34
2022-08-05T00:28:45.764Z,98243.59
2022-08-05T00:31:13.594Z,98168.56
2022-08-05T00:34:54.614Z,98127.16
2022-08-05T00:37:10.632Z,98164.53
2022-08-05T00:39:13.708Z,98178.13
2022-08-05T00:41:52.028Z,98188.03
2022-08-05T00:44:30.326Z,98188.03
2022-08-05T00:47:03.660Z,98182.69
2022-08-05T00:49:44.430Z,98181.38
2022-08-05T00:52:18.354Z,98170.25
2022-08-05T00:54:55.080Z,98180.22
2022-08-05T00:57:25.262Z,98169.72
2022-08-05T00:59:58.200Z,98180.03
2022-08-05T01:02:24.839Z,98170.53
2022-08-05T01:04:51.389Z,98175.31
2022-08-05T01:07:18.143Z,98162.63
2022-08-05T01:09:45.463Z,98171.41
2022-08-05T01:12:25.042Z,98161.25
2022-08-05T01:15:05.322Z,98164.47
2022-08-05T01:17:53.656Z,98165.44
2022-08-05T01:20:54.861Z,98172.19
2022-08-05T01:24:22.235Z,98164.09
2022-08-05T01:27:19.259Z,98157.81
2022-08-05T01:29:52.150Z,98160.59
2022-08-05T01:32:27.672Z,98157.19
2022-08-05T01:35:10.724Z,98154.53
2022-08-05T01:37:45.458Z,98154.34
2022-08-05T01:40:17.964Z,98169.41
2022-08-05T01:42:48.954Z,98167.91
2022-08-05T01:45:18.166Z,98160.22
2022-08-05T01:47:49.675Z,98158.84
2022-08-05T01:50:30.947Z,98154.81
2022-08-05T01:53:04.263Z,98159.28
2022-08-05T01:55:36.237Z,98154.94
2022-08-05T01:58:18.882Z,98151.13
2022-08-05T02:00:57.258Z,98155.22
2022-08-05T02:03:34.254Z,98135.19
2022-08-05T02:06:33.603Z,98140.59
2022-08-05T02:08:58.193Z,98135.00
2022-08-05T02:11:33.259Z,98140.50
2022-08-05T02:14:13.051Z,98138.56
2022-08-05T02:16:52.865Z,98128.03
2022-08-05T02:19:28.580Z,98125.00
2022-08-05T02:22:29.963Z,98127.97
2022-08-05T02:25:04.962Z,98126.31
2022-08-05T02:27:58.498Z,98130.97
2022-08-05T02:30:32.370Z,98137.69
2022-08-05T02:33:04.746Z,98132.72
2022-08-05T02:35:38.090Z,98136.94
2022-08-05T02:38:19.281Z,98139.78
2022-08-05T02:40:46.900Z,98143.44
2022-08-05T02:43:18.075Z,98157.44
2022-08-05T02:45:52.848Z,98159.97
2022-08-05T02:48:29.582Z,98161.13
2022-08-05T02:51:02.574Z,98175.34
2022-08-05T02:53:39.468Z,98175.53
2022-08-05T02:56:15.926Z,98192.25
2022-08-05T02:58:51.232Z,98198.75
2022-08-05T03:01:25.170Z,98200.22
2022-08-05T03:04:02.968Z,98205.28
2022-08-05T03:06:56.096Z,98210.34
2022-08-05T03:09:36.481Z,98222.38
2022-08-05T03:12:06.246Z,98232.91
2022-08-05T03:14:34.994Z,98255.09
2022-08-05T03:17:12.519Z,98279.44
2022-08-05T03:22:16.646Z,98313.84
2022-08-05T03:24:50.667Z,98320.84
2022-08-05T03:27:19.657Z,98319.84
2022-08-05T03:30:07.661Z,98320.16
2022-08-05T03:32:34.736Z,98323.88
2022-08-05T03:35:04.461Z,98318.34
2022-08-05T03:37:31.321Z,98322.50
2022-08-05T03:40:12.043Z,98326.38
2022-08-05T03:42:41.796Z,98326.72
2022-08-05T03:45:22.475Z,98330.25
2022-08-05T03:47:51.241Z,98330.88
2022-08-05T03:50:18.642Z,98330.38
2022-08-05T03:55:53.091Z,98331.38
2022-08-05T03:56:10.081Z,98340.22
2022-08-05T03:58:48.567Z,98340.22
2022-08-05T04:01:21.837Z,98327.88
2022-08-05T04:04:08.883Z,98319.84
2022-08-05T04:06:38.057Z,98316.66
2022-08-05T04:09:08.395Z,98322.91
2022-08-05T04:11:47.631Z,98322.25
2022-08-05T04:14:19.524Z,98326.41
2022-08-05T04:17:02.088Z,98317.38
2022-08-05T04:19:29.910Z,98324.41
2022-08-05T04:22:08.589Z,98323.53
2022-08-05T04:24:52.682Z,98316.56
2022-08-05T04:27:41.673Z,98316.22
2022-08-05T04:30:09.262Z,98311.38
2022-08-05T04:32:36.726Z,98323.69
2022-08-05T04:35:05.898Z,98320.16
2022-08-05T04:38:01.333Z,98323.19
2022-08-05T04:40:19.836Z,98314.19
2022-08-05T04:42:46.499Z,98315.16
2022-08-05T04:45:14.152Z,98303.47
2022-08-05T04:47:49.630Z,98292.63
2022-08-05T04:50:37.368Z,98288.84
2022-08-05T04:53:04.139Z,98276.81
2022-08-05T04:55:49.821Z,98266.47
2022-08-05T04:58:21.645Z,98254.59
2022-08-05T05:00:50.797Z,98247.88
2022-08-05T05:03:20.371Z,98242.34
2022-08-05T05:06:40.506Z,98216.22
2022-08-05T05:08:33.580Z,98195.16
2022-08-05T05:11:00.071Z,98197.78
2022-08-05T05:13:26.728Z,98194.91
2022-08-05T05:16:06.047Z,98173.34
2022-08-05T05:18:34.310Z,98143.09
2022-08-05T05:21:03.445Z,98143.09
2022-08-05T05:24:03.009Z,98128.84
2022-08-05T05:26:17.019Z,98137.06
2022-08-05T05:28:45.130Z,98143.91
2022-08-05T05:31:12.068Z,98176.59
2022-08-05T05:33:58.758Z,98185.59
2022-08-05T05:36:25.103Z,98190.91
2022-08-05T05:38:55.501Z,98208.53
2022-08-05T05:41:22.129Z,98224.50
2022-08-05T05:43:57.685Z,98228.78
2022-08-05T05:46:26.439Z,98231.13
2022-08-05T05:48:53.008Z,98243.13
2022-08-05T05:51:25.685Z,98240.06
2022-08-05T05:53:58.948Z,98243.00
2022-08-05T05:56:32.182Z,98254.69
2022-08-05T05:59:05.202Z,98263.00
2022-08-05T06:01:37.050Z,98264.69
2022-08-05T06:04:12.526Z,98270.22
2022-08-05T06:06:42.592Z,98262.84
2022-08-05T06:09:09.499Z,98256.47
2022-08-05T06:12:01.852Z,98250.28
2022-08-05T06:14:34.614Z,98248.06
2022-08-05T06:17:21.974Z,98249.19
2022-08-05T06:19:56.742Z,98255.75
2022-08-05T06:22:29.805Z,98263.72
2022-08-05T06:24:56.636Z,98268.50
2022-08-05T06:28:10.756Z,98268.25
2022-08-05T06:30:17.758Z,98272.88
2022-08-05T06:32:47.782Z,98269.28
2022-08-05T06:35:15.531Z,98264.66
2022-08-05T06:37:56.407Z,98278.53
2022-08-05T06:40:27.742Z,98273.84
2022-08-05T06:42:54.792Z,98278.19
2022-08-05T06:46:03.346Z,98270.81
2022-08-05T06:48:44.247Z,98255.91
2022-08-05T06:50:56.282Z,98274.47
2022-08-05T06:53:28.572Z,98269.41
2022-08-05T06:55:59.551Z,98273.00
2022-08-05T06:58:34.950Z,98267.94
2022-08-05T07:01:06.164Z,98273.47
2022-08-05T07:03:34.456Z,98290.78
2022-08-05T07:06:06.256Z,98302.69
2022-08-05T07:08:47.882Z,98308.41
2022-08-05T07:11:22.115Z,98302.13
2022-08-05T07:14:20.735Z,98294.94
2022-08-05T07:18:01.974Z,98299.19
2022-08-05T07:22:39.705Z,98274.41
2022-08-05T07:25:23.980Z,98286.63
2022-08-05T07:28:02.278Z,98291.25
2022-08-05T07:30:34.468Z,98288.09
2022-08-05T07:33:13.299Z,98305.41
2022-08-05T07:36:03.139Z,98306.22
2022-08-05T07:38:34.219Z,98305.91
2022-08-05T07:42:09.396Z,98307.56
2022-08-05T07:43:57.095Z,98306.34
2022-08-05T07:46:26.584Z,98308.84
2022-08-05T07:49:02.409Z,98326.53
2022-08-05T07:51:40.904Z,98325.19
2022-08-05T07:54:21.924Z,98337.00
2022-08-05T07:57:01.414Z,98340.03
2022-08-05T07:59:39.833Z,98341.81
2022-08-05T08:02:16.660Z,98333.94
2022-08-05T08:04:48.178Z,98334.75
2022-08-05T08:07:16.388Z,98338.38
2022-08-05T08:09:45.749Z,98347.81
2022-08-05T08:12:33.508Z,98348.84
2022-08-05T08:15:03.714Z,98355.63
2022-08-05T08:17:32.762Z,98356.03
2022-08-05T08:20:42.864Z,98355.69
2022-08-05T08:22:59.277Z,98370.84
2022-08-05T08:25:59.145Z,98374.38
2022-08-05T08:28:18.296Z,98374.81
2022-08-05T08:30:48.011Z,98379.88
2022-08-05T08:33:17.608Z,98380.72
2022-08-05T08:35:52.498Z,98375.91
2022-08-05T08:38:35.499Z,98382.38
2022-08-05T08:41:08.582Z,98391.78
2022-08-05T08:45:18.771Z,98391.44
2022-08-05T08:46:27.897Z,98392.03
2022-08-05T08:49:07.824Z,98400.63
2022-08-05T08:52:04.150Z,98413.72
2022-08-05T08:54:36.314Z,98422.16
2022-08-05T08:57:11.216Z,98426.72
2022-08-05T08:59:39.061Z,98425.69
2022-08-05T09:02:09.051Z,98437.09
2022-08-05T09:04:58.634Z,98442.84
2022-08-05T09:07:29.096Z,98437.63
2022-08-05T09:10:06.947Z,98438.31
2022-08-05T09:12:34.552Z,98439.13
2022-08-05T09:15:06.400Z,98444.31
2022-08-05T09:17:42.751Z,98439.63
2022-08-05T09:20:36.778Z,98442.09
2022-08-05T09:23:19.176Z,98445.31
2022-08-05T09:26:01.756Z,98452.41
2022-08-05T09:28:33.445Z,98443.78
2022-08-05T09:31:43.938Z,98444.81
2022-08-05T09:34:02.473Z,98434.22
2022-08-05T09:36:55.083Z,98428.44
2022-08-05T09:39:39.221Z,98428.97
2022-08-05T09:42:13.468Z,98415.66
2022-08-05T09:44:50.514Z,98400.41
2022-08-05T09:47:20.824Z,98411.91
2022-08-05T09:50:01.695Z,98408.69
2022-08-05T09:52:31.938Z,98416.16
2022-08-05T09:55:56.621Z,98426.19
2022-08-05T09:57:58.734Z,98440.13
2022-08-05T10:00:29.636Z,98446.44
2022-08-05T10:02:58.723Z,98448.84
2022-08-05T10:05:28.466Z,98443.00
2022-08-05T10:08:37.008Z,98440.47
2022-08-05T10:10:54.070Z,98434.75
2022-08-05T10:13:45.714Z,98433.66
2022-08-05T10:16:37.774Z,98431.03
2022-08-05T10:19:10.143Z,98434.66
2022-08-05T10:21:39.919Z,98425.50
2022-08-05T10:24:13.372Z,98428.69
2022-08-05T10:26:51.207Z,98410.00
2022-08-05T10:29:24.038Z,98414.41
2022-08-05T10:32:52.565Z,98423.41
2022-08-05T10:35:00.832Z,98424.72
2022-08-05T10:37:40.252Z,98442.22
2022-08-05T10:40:49.143Z,98447.31
2022-08-05T10:43:37.023Z,98443.22
2022-08-05T10:46:12.235Z,98448.09
2022-08-05T10:48:57.449Z,98445.50
2022-08-05T10:51:28.969Z,98461.31
2022-08-05T10:54:05.770Z,98458.22
2022-08-05T10:56:52.875Z,98466.19
2022-08-05T11:00:04.398Z,98461.88
2022-08-05T11:02:34.996Z,98461.25
2022-08-05T11:05:06.148Z,98452.03
2022-08-05T11:08:03.343Z,98467.13
2022-08-05T11:10:27.689Z,98474.03
2022-08-05T11:12:58.640Z,98477.38
2022-08-05T11:16:00.874Z,98470.13
2022-08-05T11:18:34.027Z,98479.16
2022-08-05T11:21:11.802Z,98482.41
2022-08-05T11:24:05.537Z,98511.53
2022-08-05T11:26:32.987Z,98523.72
2022-08-05T11:29:12.145Z,98527.03
2022-08-05T11:31:57.835Z,98524.63
2022-08-05T11:34:51.445Z,98531.59
2022-08-05T11:38:37.398Z,98545.91
2022-08-05T11:41:15.486Z,98543.84
2022-08-05T11:44:05.673Z,98545.13
2022-08-05T11:46:58.119Z,98545.44
2022-08-05T11:49:28.233Z,98557.16
2022-08-05T11:51:57.509Z,98561.22
2022-08-05T11:54:34.505Z,98572.50
2022-08-05T11:57:08.751Z,98580.75
2022-08-05T11:59:51.967Z,98593.13
2022-08-05T12:02:30.218Z,98601.69
2022-08-05T12:05:07.617Z,98598.50
2022-08-05T12:08:03.360Z,98605.38
2022-08-05T12:10:38.374Z,98614.69
2022-08-05T12:13:16.541Z,98621.19
2022-08-05T12:15:49.634Z,98625.88
2022-08-05T12:18:33.133Z,98629.41
2022-08-05T12:21:19.527Z,98639.91
2022-08-05T12:24:06.951Z,98635.22
2022-08-05T12:26:44.127Z,98640.06
2022-08-05T12:29:26.618Z,98641.22
2022-08-05T12:32:01.950Z,98648.25
2022-08-05T12:34:36.934Z,98655.13
2022-08-05T12:39:51.251Z,98654.00
2022-08-05T12:42:20.781Z,98658.19
2022-08-05T12:44:48.168Z,98666.03
2022-08-05T12:47:30.409Z,98666.34
2022-08-05T12:50:03.112Z,98674.19
2022-08-05T12:52:42.266Z,98694.81
2022-08-05T12:55:23.586Z,98694.00
2022-08-05T12:58:50.750Z,98693.50
2022-08-05T13:02:02.921Z,98696.13
2022-08-05T13:03:32.386Z,98702.16
2022-08-05T13:06:01.234Z,98697.84
2022-08-05T13:08:32.421Z,98695.16
2022-08-05T13:11:04.074Z,98703.53
2022-08-05T13:14:06.133Z,98703.03
2022-08-05T13:16:20.194Z,98701.03
2022-08-05T13:18:57.709Z,98703.19
2022-08-05T13:21:27.694Z,98704.53
2022-08-05T13:23:55.534Z,98711.22
2022-08-05T13:26:29.821Z,98709.72
2022-08-05T13:28:57.269Z,98714.22
2022-08-05T13:31:33.835Z,98719.09
2022-08-05T13:34:23.365Z,98724.78
2022-08-05T13:36:52.479Z,98729.97
2022-08-05T13:40:13.196Z,98722.28
2022-08-05T13:42:05.918Z,98734.47
2022-08-05T13:44:32.544Z,98745.69
2022-08-05T13:47:02.568Z,98748.38
2022-08-05T13:49:35.688Z,98748.69
2022-08-05T13:52:13.297Z,98749.22
2022-08-05T13:54:40.194Z,98753.72
2022-08-05T13:57:09.018Z,98767.16
2022-08-05T13:59:38.302Z,98753.59
2022-08-05T14:02:26.495Z,98759.91
2022-08-05T14:05:11.898Z,98761.13
2022-08-05T14:07:59.919Z,98758.44
2022-08-05T14:10:31.464Z,98745.38
2022-08-05T14:12:58.928Z,98756.44
2022-08-05T14:16:07.071Z,98745.69
2022-08-05T14:18:18.111Z,98749.19
2022-08-05T14:20:48.042Z,98754.59
2022-08-05T14:23:23.964Z,98761.44
2022-08-05T14:25:53.998Z,98757.06
2022-08-05T14:28:26.444Z,98765.41
2022-08-05T14:30:54.396Z,98763.94
2022-08-05T14:33:22.626Z,98762.09
2022-08-05T14:35:51.844Z,98758.75
2022-08-05T14:38:33.365Z,98758.75
2022-08-05T14:41:07.200Z,98773.81
2022-08-05T14:43:59.587Z,98764.44
2022-08-05T14:46:28.131Z,98757.75
2022-08-05T14:48:55.777Z,98761.44
2022-08-05T14:51:23.868Z,98765.78
2022-08-05T14:54:06.609Z,98759.09
2022-08-05T14:56:44.248Z,98753.75
2022-08-05T14:59:13.231Z,98751.88
2022-08-05T15:01:49.008Z,98743.34
2022-08-05T15:04:20.735Z,98750.72
2022-08-05T15:06:52.056Z,98743.53
2022-08-05T15:09:52.624Z,98736.34
2022-08-05T15:12:09.476Z,98740.66
2022-08-05T15:14:49.370Z,98744.34
2022-08-05T15:17:45.834Z,98747.03
2022-08-05T15:20:18.492Z,98756.06
2022-08-05T15:22:52.266Z,98748.38
2022-08-05T15:25:23.521Z,98752.09
2022-08-05T15:28:09.083Z,98744.72
2022-08-05T15:30:43.369Z,98755.44
2022-08-05T15:33:10.857Z,98747.53
2022-08-05T15:35:45.115Z,98756.06
2022-08-05T15:38:35.932Z,98748.38
2022-08-05T15:41:22.059Z,98752.72
2022-08-05T15:43:46.851Z,98756.09
2022-08-05T15:46:13.700Z,98760.78
2022-08-05T15:48:40.831Z,98762.78
2022-08-05T15:52:13.642Z,98759.09
2022-08-05T15:54:16.486Z,98755.06
2022-08-05T15:56:43.674Z,98761.75
2022-08-05T15:59:22.063Z,98764.81
2022-08-05T16:01:52.648Z,98762.47
2022-08-05T16:04:21.238Z,98774.19
2022-08-05T16:06:52.934Z,98761.44
2022-08-05T16:09:19.451Z,98767.13
2022-08-05T16:11:52.824Z,98774.00
2022-08-05T16:14:19.844Z,98775.84
2022-08-05T16:16:47.362Z,98776.19
2022-08-05T16:19:18.960Z,98775.53
2022-08-05T16:22:03.466Z,98771.50
2022-08-05T16:24:35.928Z,98767.13
2022-08-05T16:27:09.212Z,98774.81
2022-08-05T16:29:37.689Z,98779.84
2022-08-05T16:32:06.458Z,98787.22
2022-08-05T16:34:36.315Z,98779.19
2022-08-05T16:37:02.860Z,98784.88
2022-08-05T16:40:05.332Z,98791.41
2022-08-05T16:42:34.937Z,98789.25
2022-08-05T16:45:01.908Z,98796.94
2022-08-05T16:47:40.882Z,98797.97
2022-08-05T16:50:19.211Z,98807.31
2022-08-05T16:52:46.078Z,98813.66
2022-08-05T16:55:12.880Z,98812.66
2022-08-05T16:57:53.472Z,98827.06
2022-08-05T17:00:34.570Z,98826.00
2022-08-05T17:03:15.191Z,98825.03
2022-08-05T17:05:53.218Z,98826.69
2022-08-05T17:08:35.919Z,98838.38
2022-08-05T17:11:12.723Z,98835.56
2022-08-05T17:13:43.892Z,98834.59
2022-08-05T17:16:30.232Z,98837.66
2022-08-05T17:18:57.095Z,98839.69
2022-08-05T17:21:23.938Z,98829.13
2022-08-05T17:24:05.510Z,98839.00
2022-08-05T17:26:36.257Z,98840.00
2022-08-05T17:29:07.426Z,98835.66
2022-08-05T17:31:41.523Z,98848.34
2022-08-05T17:34:30.123Z,98838.47
2022-08-05T17:37:02.289Z,98843.28
2022-08-05T17:39:34.140Z,98843.28
2022-08-05T17:42:17.296Z,98852.38
2022-08-05T17:44:50.375Z,98857.66
2022-08-05T17:47:21.884Z,98860.13
2022-08-05T17:50:00.429Z,98856.97
2022-08-05T17:52:32.732Z,98858.63
2022-08-05T17:55:00.529Z,98859.97
2022-08-05T17:57:28.029Z,98871.31
2022-08-05T18:00:03.266Z,98870.66
2022-08-05T18:02:33.060Z,98879.47
2022-08-05T18:05:03.155Z,98877.28
2022-08-05T18:07:41.210Z,98884.28
2022-08-05T18:10:11.276Z,98886.28
2022-08-05T18:12:39.278Z,98896.31
2022-08-05T18:15:06.774Z,98890.72
2022-08-05T18:18:00.480Z,98901.03
2022-08-05T18:20:29.175Z,98896.03
2022-08-05T18:22:57.919Z,98907.66
2022-08-05T18:25:33.080Z,98908.03
2022-08-05T18:28:01.714Z,98907.84
2022-08-05T18:30:33.052Z,98911.84
2022-08-05T18:33:00.370Z,98918.41
2022-08-05T18:35:50.038Z,98916.56
2022-08-05T18:38:19.131Z,98912.59
2022-08-05T18:41:55.402Z,98920.94
2022-08-05T18:43:42.703Z,98915.50
2022-08-05T18:46:10.193Z,98915.50
2022-08-05T18:48:41.460Z,98915.22
2022-08-05T18:52:04.501Z,98916.06
2022-08-05T18:54:14.906Z,98923.53
2022-08-05T18:56:41.775Z,98932.03
2022-08-05T18:59:43.923Z,98936.00
2022-08-05T19:02:04.718Z,98933.22
2022-08-05T19:05:03.250Z,98939.16
2022-08-05T19:07:24.875Z,98947.94
2022-08-05T19:09:57.172Z,98945.41
2022-08-05T19:12:25.511Z,98947.09
2022-08-05T19:15:00.458Z,98953.44
2022-08-05T19:18:08.587Z,98965.22
2022-08-05T19:20:15.769Z,98975.56
2022-08-05T19:22:44.174Z,98987.38
2022-08-05T19:25:11.119Z,98991.66
2022-08-05T19:27:56.154Z,98996.34
2022-08-05T19:30:22.671Z,98992.06
2022-08-05T19:32:50.390Z,99002.72
2022-08-05T19:35:16.928Z,98995.16
2022-08-05T19:38:06.450Z,99003.53
2022-08-05T19:40:34.779Z,99009.88
2022-08-05T19:43:05.738Z,99016.47
2022-08-05T19:45:36.542Z,99022.75
2022-08-05T19:48:05.274Z,99031.84
2022-08-05T19:50:32.299Z,99034.38
2022-08-05T19:53:09.307Z,99033.72
2022-08-05T19:56:12.511Z,99035.66
2022-08-05T19:58:29.222Z,99049.34
2022-08-05T20:00:56.601Z,99054.09
2022-08-05T20:03:25.357Z,99058.41
2022-08-05T20:05:56.371Z,99059.88
2022-08-05T20:08:24.380Z,99064.75
2022-08-05T20:10:52.284Z,99062.41
2022-08-05T20:13:29.782Z,99074.78
2022-08-05T20:15:57.680Z,99075.16
2022-08-05T20:18:33.699Z,99080.53
2022-08-05T20:21:05.302Z,99088.53
2022-08-05T20:23:39.378Z,99088.38
2022-08-05T20:26:17.284Z,99084.00
2022-08-05T20:28:50.460Z,99093.44
2022-08-05T20:31:21.682Z,99090.53
2022-08-05T20:33:50.188Z,99084.88
2022-08-05T20:36:17.886Z,99093.41
2022-08-05T20:38:53.453Z,99093.56
2022-08-05T20:41:27.190Z,99094.72
2022-08-05T20:44:18.758Z,99094.84
2022-08-05T20:46:54.784Z,99100.75
2022-08-05T20:49:24.346Z,99103.78
2022-08-05T20:51:54.137Z,99101.72
2022-08-05T20:54:22.115Z,99102.31
2022-08-05T20:56:49.116Z,99103.88
2022-08-05T20:59:19.175Z,99106.16
2022-08-05T21:01:53.605Z,99111.22
2022-08-05T21:04:20.191Z,99116.25
2022-08-05T21:06:46.761Z,99117.69
2022-08-05T21:09:15.072Z,99114.56
2022-08-05T21:12:10.868Z,99121.91
2022-08-05T21:14:31.473Z,99126.72
2022-08-05T21:17:05.362Z,99129.84
2022-08-05T21:19:46.648Z,99133.47
2022-08-05T21:22:14.600Z,99135.97
2022-08-05T21:24:41.132Z,99137.88
2022-08-05T21:27:09.170Z,99132.53
2022-08-05T21:29:40.659Z,99137.94
2022-08-05T21:32:07.766Z,99144.03
2022-08-05T21:34:35.651Z,99135.84
2022-08-05T21:37:02.519Z,99136.00
2022-08-05T21:39:29.528Z,99149.56
2022-08-05T21:42:01.014Z,99149.91
2022-08-05T21:44:28.411Z,99153.88
2022-08-05T21:46:57.942Z,99152.59
2022-08-05T21:49:48.108Z,99151.47
2022-08-05T21:52:16.193Z,99147.56
2022-08-05T21:54:48.615Z,99159.63
2022-08-05T21:57:31.254Z,99153.59
2022-08-05T22:00:07.081Z,99160.56
2022-08-05T22:02:38.272Z,99159.44
2022-08-05T22:05:05.949Z,99164.09
2022-08-05T22:07:40.372Z,99167.28
2022-08-05T22:10:27.080Z,99162.50
2022-08-05T22:12:59.178Z,99166.84
2022-08-05T22:16:01.060Z,99165.03
2022-08-05T22:18:25.540Z,99166.94
2022-08-05T22:20:52.827Z,99170.00
2022-08-05T22:24:02.452Z,99167.56
2022-08-05T22:26:43.132Z,99172.72
2022-08-05T22:29:17.375Z,99172.00
2022-08-05T22:31:45.333Z,99176.53
2022-08-05T22:34:12.888Z,99178.44
2022-08-05T22:36:52.280Z,99183.81
2022-08-05T22:39:21.377Z,99181.63
2022-08-05T22:42:09.518Z,99182.34
2022-08-05T22:44:34.936Z,99182.97
2022-08-05T22:47:05.848Z,99189.22
2022-08-05T22:50:20.364Z,99189.47
2022-08-05T22:52:30.665Z,99193.50
2022-08-05T22:55:01.803Z,99196.78
2022-08-05T22:57:36.263Z,99199.13
2022-08-05T23:00:07.829Z,99192.34
2022-08-05T23:02:40.075Z,99199.13
2022-08-05T23:05:14.902Z,99204.81
2022-08-05T23:07:48.325Z,99204.16
2022-08-05T23:10:20.246Z,99202.03
2022-08-05T23:12:54.933Z,99219.50
2022-08-05T23:15:27.071Z,99219.09
2022-08-05T23:18:00.923Z,99224.06
2022-08-05T23:20:30.159Z,99216.31
2022-08-05T23:22:58.597Z,99226.81
2022-08-05T23:25:51.090Z,99233.78
2022-08-05T23:28:12.748Z,99228.97
2022-08-05T23:30:43.386Z,99233.47
2022-08-05T23:33:26.299Z,99246.03
2022-08-05T23:36:05.355Z,99240.88
2022-08-05T23:38:31.885Z,99243.50
2022-08-05T23:40:58.394Z,99237.88
2022-08-05T23:44:04.614Z,99240.50
2022-08-05T23:46:21.336Z,99238.72
2022-08-05T23:49:00.236Z,99250.22
2022-08-05T23:51:52.510Z,99249.81
2022-08-05T23:54:25.869Z,99251.78
2022-08-05T23:56:55.202Z,99252.09
2022-08-05T23:59:23.127Z,99255.81
